Time;durP1;ratioP1;P1;durP2;ratioP2;P2;SDS_P1;SDS_P2;PMS_P1;PMS_P2;Temp;Humidity;BMP_temperature;BMP_pressure;BME280_temperature;BME280_humidity;BME280_pressure;Samples;Min_cycle;Max_cycle;Signal;HPM_P1;HPM_P2
2023/09/26 00:01:56;;;;;;;6.30;3.40;;;;;;;26.19;35.53;101363.95;102709;1294;62294;-82
2023/09/26 00:04:22;;;;;;;10.10;3.40;;;;;;;26.19;35.54;101360.31;102817;1294;63357;-80
2023/09/26 00:06:47;;;;;;;5.80;3.10;;;;;;;26.19;35.58;101358.20;102790;1294;62871;-81
2023/09/26 00:09:13;;;;;;;7.20;3.00;;;;;;;26.19;35.62;101357.64;102662;1297;62303;-80
2023/09/26 00:11:38;;;;;;;9.50;3.30;;;;;;;26.19;35.59;101358.57;102744;1294;62198;-80
2023/09/26 00:14:05;;;;;;;7.20;3.50;;;;;;;26.19;35.55;101356.72;102825;1297;62986;-80
2023/09/26 00:16:31;;;;;;;5.60;2.70;;;;;;;26.18;35.49;101356.60;102742;1292;62298;-81
2023/09/26 00:18:56;;;;;;;8.70;3.50;;;;;;;26.18;35.51;101352.33;102688;1295;62374;-81
2023/09/26 00:21:22;;;;;;;5.40;3.10;;;;;;;26.18;35.48;101351.62;102804;1292;62179;-81
2023/09/26 00:23:47;;;;;;;6.80;3.20;;;;;;;26.18;35.47;101351.98;102848;1295;63835;-81
2023/09/26 00:26:13;;;;;;;6.60;3.20;;;;;;;26.18;35.42;101349.60;102762;1297;62650;-83
2023/09/26 00:28:39;;;;;;;5.80;3.00;;;;;;;26.18;35.41;101345.46;102758;1292;63280;-81
2023/09/26 00:31:04;;;;;;;8.20;3.20;;;;;;;26.18;35.35;101344.41;102711;1293;62156;-82
2023/09/26 00:33:32;;;;;;;9.90;3.10;;;;;;;26.17;35.71;101341.90;102853;1296;62223;-81
2023/09/26 00:36:08;;;;;;;7.40;3.20;;;;;;;26.17;35.58;101339.93;102910;1297;62140;-81
2023/09/26 00:38:33;;;;;;;8.80;2.90;;;;;;;26.17;35.38;101340.30;102677;1294;62212;-81
2023/09/26 00:40:59;;;;;;;6.60;3.20;;;;;;;26.17;35.46;101341.22;102825;1293;62617;-81
2023/09/26 00:43:25;;;;;;;7.30;3.20;;;;;;;26.17;35.59;101343.91;102756;1294;62863;-82
2023/09/26 00:45:53;;;;;;;6.90;3.30;;;;;;;26.17;35.42;101344.64;102803;1294;63364;-81
2023/09/26 00:48:18;;;;;;;7.60;3.30;;;;;;;26.17;35.50;101342.14;102778;1296;63559;-81
2023/09/26 00:50:45;;;;;;;6.90;3.00;;;;;;;26.17;35.30;101340.89;102685;1294;62218;-80
2023/09/26 00:53:10;;;;;;;7.70;3.40;;;;;;;26.17;35.49;101341.79;103017;1293;62045;-80
2023/09/26 00:55:36;;;;;;;7.70;3.10;;;;;;;26.17;35.67;101341.20;102776;1293;62379;-82
2023/09/26 00:58:03;;;;;;;7.40;3.20;;;;;;;26.17;35.45;101338.33;102709;1295;63454;-80
2023/09/26 01:00:29;;;;;;;5.70;3.10;;;;;;;26.17;35.37;101335.09;102796;1294;62203;-80
2023/09/26 01:02:54;;;;;;;7.30;3.30;;;;;;;26.17;35.42;101331.67;102819;1294;62210;-82
2023/09/26 01:05:20;;;;;;;7.10;3.40;;;;;;;26.17;35.56;101330.42;102680;1294;62312;-81
2023/09/26 01:07:46;;;;;;;6.90;3.30;;;;;;;26.16;35.41;101327.55;102714;1297;62224;-81
2023/09/26 01:10:12;;;;;;;7.60;3.30;;;;;;;26.16;35.32;101324.88;102722;1294;62156;-83
2023/09/26 01:12:38;;;;;;;6.10;3.10;;;;;;;26.16;35.52;101324.52;102917;1298;62306;-81
2023/09/26 01:15:05;;;;;;;8.00;3.30;;;;;;;26.16;35.24;101325.60;102800;1294;62245;-81
2023/09/26 01:17:32;;;;;;;5.70;3.00;;;;;;;26.16;35.31;101327.05;102694;1294;63834;-82
2023/09/26 01:19:58;;;;;;;8.70;3.20;;;;;;;26.15;35.31;101325.67;102654;1297;63415;-79
2023/09/26 01:22:25;;;;;;;6.50;3.10;;;;;;;26.15;35.58;101323.86;102777;1294;63351;-80
2023/09/26 01:24:50;;;;;;;7.50;3.40;;;;;;;26.16;35.30;101326.19;102717;1293;62202;-80
2023/09/26 01:27:16;;;;;;;7.20;3.20;;;;;;;26.16;35.27;101325.98;102659;1293;62898;-80
2023/09/26 01:29:42;;;;;;;6.20;3.20;;;;;;;26.16;35.55;101330.86;102641;1294;62255;-81
2023/09/26 01:32:08;;;;;;;5.30;3.20;;;;;;;26.15;35.37;101328.92;102807;1293;62206;-81
2023/09/26 01:34:34;;;;;;;9.90;3.30;;;;;;;26.15;35.34;101325.85;102734;1293;62213;-81
2023/09/26 01:36:59;;;;;;;7.20;3.00;;;;;;;26.15;35.31;101323.14;102770;1294;62264;-81
2023/09/26 01:39:25;;;;;;;7.90;2.90;;;;;;;26.15;35.25;101323.14;102730;1292;63902;-81
2023/09/26 01:41:54;;;;;;;7.20;3.20;;;;;;;26.15;35.21;101326.05;102720;1296;62861;-81
2023/09/26 01:44:19;;;;;;;6.30;3.30;;;;;;;26.15;35.24;101329.67;102650;1294;62141;-82
2023/09/26 01:46:45;;;;;;;5.80;3.40;;;;;;;26.15;35.25;101328.41;102778;1294;62214;-82
2023/09/26 01:49:11;;;;;;;5.20;3.10;;;;;;;26.14;35.44;101331.71;102734;1294;62211;-80
2023/09/26 01:51:36;;;;;;;9.10;3.40;;;;;;;26.14;35.48;101335.89;102743;1295;65403;-80
2023/09/26 01:54:02;;;;;;;6.40;3.10;;;;;;;26.14;35.35;101341.97;102669;1292;62296;-82
2023/09/26 01:56:30;;;;;;;7.70;3.40;;;;;;;26.14;35.54;101343.27;102796;1294;62270;-81
2023/09/26 01:58:56;;;;;;;8.00;3.30;;;;;;;26.14;35.31;101345.23;102747;1294;62209;-81
2023/09/26 02:01:22;;;;;;;6.90;3.20;;;;;;;26.14;35.39;101334.80;102714;1297;62207;-81
2023/09/26 02:03:47;;;;;;;5.50;3.00;;;;;;;26.15;35.43;101338.89;102679;1296;62221;-81
2023/09/26 02:06:13;;;;;;;6.80;3.30;;;;;;;26.14;35.34;101343.10;102819;1295;63424;-81
2023/09/26 02:08:39;;;;;;;6.20;3.20;;;;;;;26.13;35.21;101342.98;102720;1292;63498;-81
2023/09/26 02:11:04;;;;;;;6.20;3.10;;;;;;;26.14;35.29;101346.70;102702;1294;62193;-82
2023/09/26 02:13:30;;;;;;;6.80;3.30;;;;;;;26.13;35.32;101344.95;102910;1294;63526;-82
2023/09/26 02:15:55;;;;;;;7.60;3.00;;;;;;;26.14;35.37;101346.16;102743;1294;62403;-81
2023/09/26 02:18:21;;;;;;;6.80;3.30;;;;;;;26.13;35.36;101346.42;102674;1292;62138;-80
2023/09/26 02:20:48;;;;;;;6.20;3.30;;;;;;;26.14;35.36;101350.86;102745;1295;62269;-81
2023/09/26 02:23:15;;;;;;;7.10;3.10;;;;;;;26.12;35.34;101349.68;102668;1294;64385;-81
2023/09/26 02:25:41;;;;;;;5.70;3.20;;;;;;;26.13;35.29;101349.32;102770;1292;62122;-81
2023/09/26 02:28:07;;;;;;;6.00;3.40;;;;;;;26.13;35.20;101350.58;102540;1298;62280;-82
2023/09/26 02:30:32;;;;;;;6.90;3.40;;;;;;;26.13;35.19;101351.27;102822;1294;62283;-82
2023/09/26 02:32:58;;;;;;;7.60;3.50;;;;;;;26.13;35.17;101354.00;102643;1294;62187;-79
2023/09/26 02:35:24;;;;;;;4.60;2.90;;;;;;;26.12;35.28;101352.26;102754;1293;62163;-81
2023/09/26 02:37:49;;;;;;;5.80;3.30;;;;;;;26.13;35.19;101352.96;102641;1293;62271;-81
2023/09/26 02:40:15;;;;;;;8.00;3.40;;;;;;;26.13;35.20;101355.30;102704;1294;62877;-82
2023/09/26 02:42:45;;;;;;;7.20;3.40;;;;;;;26.13;35.26;101356.02;102730;1297;62195;-82
2023/09/26 02:45:12;;;;;;;5.80;3.20;;;;;;;26.12;35.24;101354.08;102665;1293;63730;-81
2023/09/26 02:47:37;;;;;;;6.80;3.00;;;;;;;26.13;35.12;101359.06;102727;1292;66458;-82
2023/09/26 02:50:03;;;;;;;5.90;3.20;;;;;;;26.12;35.24;101361.79;102746;1295;62540;-81
2023/09/26 02:52:31;;;;;;;6.70;2.90;;;;;;;26.12;35.28;101364.86;102753;1294;63395;-81
2023/09/26 02:54:56;;;;;;;7.40;3.30;;;;;;;26.12;35.32;101363.08;102759;1297;62125;-80
2023/09/26 02:57:22;;;;;;;6.10;3.40;;;;;;;26.12;35.17;101363.64;102712;1294;62225;-82
2023/09/26 02:59:48;;;;;;;5.20;2.90;;;;;;;26.12;35.12;101362.75;102670;1294;62302;-82
2023/09/26 03:02:14;;;;;;;6.30;3.30;;;;;;;26.11;35.04;101362.79;102746;1294;63462;-81
2023/09/26 03:04:40;;;;;;;6.70;3.40;;;;;;;26.12;34.99;101365.63;102951;1294;62199;-81
2023/09/26 03:07:06;;;;;;;5.90;3.30;;;;;;;26.12;35.03;101365.27;102407;1295;553235;-81
2023/09/26 03:09:31;;;;;;;6.80;3.30;;;;;;;26.11;35.15;101365.31;102697;1294;66771;-82
2023/09/26 03:11:57;;;;;;;5.80;3.10;;;;;;;26.11;35.23;101363.52;102587;1294;63364;-82
2023/09/26 03:14:23;;;;;;;5.80;3.20;;;;;;;26.11;34.97;101365.15;103016;1294;62551;-79
2023/09/26 03:16:49;;;;;;;6.40;3.30;;;;;;;26.11;35.01;101368.37;102704;1295;62269;-80
2023/09/26 03:19:17;;;;;;;6.70;3.00;;;;;;;26.12;35.17;101366.70;102599;1294;63456;-81
2023/09/26 03:21:43;;;;;;;7.30;3.30;;;;;;;26.11;35.29;101368.39;102801;1294;62665;-80
2023/09/26 03:24:09;;;;;;;7.30;3.30;;;;;;;26.11;35.22;101373.66;102796;1292;62354;-81
2023/09/26 03:26:35;;;;;;;7.00;3.70;;;;;;;26.10;34.98;101372.61;102829;1294;62206;-81
2023/09/26 03:29:00;;;;;;;8.90;3.50;;;;;;;26.09;35.05;101370.54;102687;1294;63305;-81
2023/09/26 03:31:26;;;;;;;9.10;3.30;;;;;;;26.09;35.21;101372.56;102801;1292;63041;-81
2023/09/26 03:33:52;;;;;;;5.60;3.40;;;;;;;26.08;35.17;101375.47;102724;1293;63414;-81
2023/09/26 03:36:17;;;;;;;7.70;3.80;;;;;;;26.08;35.01;101372.79;102804;1292;62210;-81
2023/09/26 03:38:43;;;;;;;9.00;3.80;;;;;;;26.06;35.02;101369.31;102712;1293;62159;-79
2023/09/26 03:41:09;;;;;;;8.80;3.90;;;;;;;26.06;34.85;101370.04;102773;1294;62357;-81
2023/09/26 03:43:35;;;;;;;7.90;3.50;;;;;;;26.05;34.90;101370.48;102700;1294;63331;-81
2023/09/26 03:46:06;;;;;;;9.50;3.50;;;;;;;26.04;34.67;101369.52;102791;1297;62114;-80
2023/09/26 03:48:32;;;;;;;8.10;3.50;;;;;;;26.03;34.65;101370.89;102812;1294;65202;-80
2023/09/26 03:51:11;;;;;;;12.40;4.30;;;;;;;26.02;34.42;101369.34;102590;1298;62202;-81
2023/09/26 03:53:37;;;;;;;9.20;3.70;;;;;;;26.00;34.31;101370.71;102779;1295;62190;-81
2023/09/26 03:56:05;;;;;;;12.70;4.00;;;;;;;25.99;34.33;101372.61;102839;1294;62352;-80
2023/09/26 03:58:31;;;;;;;8.30;3.70;;;;;;;25.98;34.02;101371.47;102758;1295;64713;-81
2023/09/26 04:01:11;;;;;;;10.90;4.00;;;;;;;25.97;34.00;101375.16;102759;1294;66713;-80
2023/09/26 04:03:37;;;;;;;10.80;4.20;;;;;;;25.95;33.88;101373.46;103037;1293;62161;-81
2023/09/26 04:06:03;;;;;;;9.70;4.00;;;;;;;25.94;33.83;101373.77;102911;1294;62638;-81
2023/09/26 04:08:29;;;;;;;16.70;4.40;;;;;;;25.93;33.73;101377.21;102831;1295;62307;-81
2023/09/26 04:10:54;;;;;;;10.20;3.90;;;;;;;25.93;33.68;101379.24;102555;1294;62752;-81
2023/09/26 04:13:20;;;;;;;8.90;3.80;;;;;;;25.92;33.52;101382.94;102793;1294;62252;-81
2023/09/26 04:15:45;;;;;;;6.90;3.70;;;;;;;25.91;33.49;101386.97;102728;1294;62219;-81
2023/09/26 04:18:11;;;;;;;12.80;4.40;;;;;;;25.90;33.47;101385.61;102728;1294;63346;-81
2023/09/26 04:20:37;;;;;;;8.10;4.00;;;;;;;25.90;33.38;101388.90;102758;1294;63494;-81
2023/09/26 04:23:03;;;;;;;11.90;4.60;;;;;;;25.89;33.33;101386.25;102775;1297;62204;-81
2023/09/26 04:25:30;;;;;;;13.10;4.60;;;;;;;25.88;33.22;101389.01;102765;1291;62294;-84
2023/09/26 04:27:55;;;;;;;13.00;4.60;;;;;;;25.85;33.16;101388.20;102873;1293;62255;-80
2023/09/26 04:30:23;;;;;;;13.70;4.30;;;;;;;25.81;33.03;101389.98;102755;1295;62291;-82
2023/09/26 04:32:49;;;;;;;13.20;4.60;;;;;;;25.77;32.88;101391.60;102861;1297;62198;-80
2023/09/26 04:35:14;;;;;;;11.10;4.50;;;;;;;25.70;32.70;101390.33;102933;1294;63407;-80
2023/09/26 04:37:41;;;;;;;9.60;4.20;;;;;;;25.69;32.77;101389.52;103043;1294;63345;-82
2023/09/26 04:40:10;;;;;;;6.80;3.90;;;;;;;25.66;32.80;101391.52;103233;1292;62108;-82
2023/09/26 04:42:39;;;;;;;;;;;;;;;25.58;32.53;101396.91;103281;1293;67798;-81
2023/09/26 04:45:09;;;;;;;12.20;4.30;;;;;;;25.51;32.53;101397.97;103366;1294;63704;-82
2023/09/26 04:47:37;;;;;;;14.50;4.90;;;;;;;25.48;32.71;101398.66;103486;1294;62141;-82
2023/09/26 04:50:03;;;;;;;14.90;5.00;;;;;;;25.44;32.55;101396.59;103137;1292;63884;-82
2023/09/26 04:52:30;;;;;;;12.30;5.20;;;;;;;25.39;32.34;101399.52;103421;1294;62356;-82
2023/09/26 04:54:55;;;;;;;17.00;5.20;;;;;;;25.32;32.10;101397.14;104016;1293;62130;-81
2023/09/26 04:57:21;;;;;;;11.10;4.70;;;;;;;25.31;32.26;101399.23;104202;1293;62214;-82
2023/09/26 04:59:48;;;;;;;17.50;4.90;;;;;;;25.28;32.18;101402.86;104311;1293;62157;-82
2023/09/26 05:02:13;;;;;;;14.70;4.60;;;;;;;25.22;31.92;101402.13;104202;1293;60268;-82
2023/09/26 05:04:41;;;;;;;10.90;4.60;;;;;;;25.16;31.97;101407.80;103940;1292;62299;-81
2023/09/26 05:07:09;;;;;;;11.90;4.70;;;;;;;25.16;31.88;101414.29;104289;1293;62114;-82
2023/09/26 05:09:37;;;;;;;16.40;5.00;;;;;;;25.18;32.01;101413.91;103941;1294;63939;-82
2023/09/26 05:12:02;;;;;;;12.20;4.60;;;;;;;25.20;31.85;101416.64;103965;1295;66499;-81
2023/09/26 05:14:28;;;;;;;17.10;4.70;;;;;;;25.21;31.85;101423.42;103807;1294;62333;-82
2023/09/26 05:16:53;;;;;;;11.60;4.70;;;;;;;25.23;31.84;101427.35;103652;1292;62142;-82
2023/09/26 05:19:19;;;;;;;16.20;4.60;;;;;;;25.26;31.88;101429.69;103477;1297;62202;-80
2023/09/26 05:21:45;;;;;;;19.20;4.80;;;;;;;25.29;31.84;101431.27;103660;1294;62203;-81
2023/09/26 05:24:11;;;;;;;16.30;4.50;;;;;;;25.33;31.66;101436.55;103604;1295;63168;-81
2023/09/26 05:26:37;;;;;;;14.80;5.30;;;;;;;25.35;31.60;101437.14;103572;1293;62117;-81
2023/09/26 05:29:02;;;;;;;16.30;4.90;;;;;;;25.34;31.50;101438.64;103696;1293;62656;-81
2023/09/26 05:31:30;;;;;;;15.40;5.10;;;;;;;25.33;31.65;101443.56;103502;1292;61939;-81
2023/09/26 05:33:56;;;;;;;13.90;5.30;;;;;;;25.34;31.58;101441.88;103753;1293;64459;-81
2023/09/26 05:36:24;;;;;;;13.00;4.80;;;;;;;25.33;31.47;101442.33;103573;1297;62243;-81
2023/09/26 05:38:49;;;;;;;16.40;5.20;;;;;;;25.30;31.67;101444.11;103721;1293;62324;-81
2023/09/26 05:41:15;;;;;;;15.30;5.20;;;;;;;25.32;31.51;101452.48;103482;1293;62225;-80
2023/09/26 05:43:41;;;;;;;15.30;4.50;;;;;;;25.33;31.53;101454.92;103541;1294;62422;-81
2023/09/26 05:46:06;;;;;;;15.30;4.90;;;;;;;25.33;31.33;101454.35;103722;1296;62243;-81
2023/09/26 05:48:32;;;;;;;12.30;5.10;;;;;;;25.33;31.39;101455.62;103686;1293;62112;-81
2023/09/26 05:51:02;;;;;;;15.30;5.40;;;;;;;25.33;31.66;101448.61;103769;1294;62064;-81
2023/09/26 05:53:29;;;;;;;22.70;5.30;;;;;;;25.32;31.53;101453.94;104172;1293;62649;-81
2023/09/26 05:55:55;;;;;;;23.40;5.80;;;;;;;25.28;31.59;101461.76;103744;1294;62024;-82
2023/09/26 05:58:21;;;;;;;13.70;4.80;;;;;;;25.21;31.58;101461.05;104448;1294;61995;-81
2023/09/26 06:00:47;;;;;;;17.00;4.90;;;;;;;25.16;31.49;101461.86;104196;1293;62208;-82
2023/09/26 06:03:14;;;;;;;21.10;5.70;;;;;;;25.12;31.67;101460.67;104193;1297;62102;-81
2023/09/26 06:05:42;;;;;;;16.50;5.10;;;;;;;25.01;31.59;101467.84;104076;1294;62069;-82
2023/09/26 06:08:07;;;;;;;17.70;5.20;;;;;;;24.91;31.87;101463.55;103874;1294;62147;-82
2023/09/26 06:10:33;;;;;;;17.30;5.30;;;;;;;24.94;31.82;101466.95;103858;1297;62122;-80
2023/09/26 06:12:59;;;;;;;24.60;5.60;;;;;;;24.98;31.90;101463.02;103727;1295;62283;-81
2023/09/26 06:15:24;;;;;;;14.40;5.20;;;;;;;25.04;32.10;101463.69;103449;1294;62176;-81
2023/09/26 06:17:57;;;;;;;14.50;5.00;;;;;;;25.02;32.32;101463.83;103591;1297;62204;-81
2023/09/26 06:20:23;;;;;;;16.40;5.10;;;;;;;24.97;32.71;101462.81;103426;1294;62124;-81
2023/09/26 06:22:49;;;;;;;14.90;5.20;;;;;;;24.93;33.05;101463.56;103460;1292;62120;-81
2023/09/26 06:25:14;;;;;;;19.50;4.90;;;;;;;24.96;33.45;101463.19;103369;1292;62200;-80
2023/09/26 06:27:40;;;;;;;14.40;5.20;;;;;;;24.96;33.31;101463.55;103546;1294;62227;-82
2023/09/26 06:30:06;;;;;;;13.90;4.60;;;;;;;24.89;33.16;101466.42;103529;1291;62192;-82
2023/09/26 06:32:34;;;;;;;16.30;4.80;;;;;;;24.73;33.02;101464.58;103841;1296;60223;-82
2023/09/26 06:34:59;;;;;;;16.10;4.70;;;;;;;24.63;33.13;101464.83;103640;1294;62137;-82
2023/09/26 06:37:25;;;;;;;18.70;4.90;;;;;;;24.57;32.99;101464.84;103752;1292;62208;-81
2023/09/26 06:39:53;;;;;;;12.50;4.90;;;;;;;24.57;33.05;101463.95;103671;1294;63172;-82
2023/09/26 06:42:19;;;;;;;16.80;4.60;;;;;;;24.65;33.10;101460.35;103712;1292;62502;-81
2023/09/26 06:44:48;;;;;;;16.60;4.90;;;;;;;24.73;33.08;101462.11;103644;1292;62103;-80
2023/09/26 06:47:14;;;;;;;20.00;5.20;;;;;;;24.78;33.08;101464.06;103657;1293;63720;-81
2023/09/26 06:49:43;;;;;;;14.80;4.70;;;;;;;24.75;33.01;101463.69;103766;1292;62888;-81
2023/09/26 06:52:08;;;;;;;18.50;5.10;;;;;;;24.75;33.14;101463.70;103831;1294;62221;-81
2023/09/26 06:54:36;;;;;;;17.30;5.00;;;;;;;24.75;33.14;101466.04;104074;1296;61308;-82
2023/09/26 06:57:01;;;;;;;16.00;4.80;;;;;;;24.80;33.22;101467.80;103860;1294;63965;-81
2023/09/26 06:59:27;;;;;;;19.90;4.70;;;;;;;24.87;33.30;101475.42;104064;1292;61053;-82
2023/09/26 07:01:53;;;;;;;14.10;4.90;;;;;;;24.90;33.44;101476.05;103942;1294;62076;-81
2023/09/26 07:04:18;;;;;;;17.80;5.00;;;;;;;24.97;33.57;101475.94;103930;1291;63333;-81
2023/09/26 07:06:45;;;;;;;14.40;4.70;;;;;;;25.01;33.52;101473.82;104018;1295;61974;-81
2023/09/26 07:09:12;;;;;;;17.70;4.80;;;;;;;25.07;33.52;101474.59;103628;1292;63349;-82
2023/09/26 07:11:40;;;;;;;15.90;3.90;;;;;;;25.10;33.40;101476.89;103582;1297;62138;-82
2023/09/26 07:14:07;;;;;;;19.80;4.50;;;;;;;25.07;33.23;101474.55;103673;1293;60666;-81
2023/09/26 07:16:33;;;;;;;17.20;5.10;;;;;;;25.08;33.36;101471.11;103724;1292;62105;-81
2023/09/26 07:19:00;;;;;;;14.50;5.40;;;;;;;25.11;33.24;101474.47;103663;1294;63556;-80
2023/09/26 07:21:25;;;;;;;16.50;4.60;;;;;;;25.15;33.27;101477.89;103520;1294;62118;-81
2023/09/26 07:23:51;;;;;;;16.00;4.60;;;;;;;25.20;33.17;101483.12;103512;1293;62871;-82
2023/09/26 07:26:17;;;;;;;14.80;4.90;;;;;;;25.23;33.23;101485.23;103611;1293;62215;-81
2023/09/26 07:28:44;;;;;;;12.00;4.90;;;;;;;25.23;33.15;101485.04;103574;1293;62117;-80
2023/09/26 07:31:11;;;;;;;12.10;4.40;;;;;;;25.24;33.11;101487.34;103565;1295;62184;-80
2023/09/26 07:33:37;;;;;;;12.10;4.40;;;;;;;25.23;33.16;101487.36;103605;1294;62090;-81
2023/09/26 07:36:04;;;;;;;12.70;4.70;;;;;;;25.23;33.03;101483.92;103532;1296;62207;-82
2023/09/26 07:38:31;;;;;;;13.60;4.40;;;;;;;25.27;33.02;101484.55;103810;1293;62985;-82
2023/09/26 07:40:57;;;;;;;13.10;4.70;;;;;;;25.30;33.04;101485.91;103550;1294;62260;-81
2023/09/26 07:43:29;;;;;;;13.10;4.50;;;;;;;25.33;32.95;101481.23;103674;1291;62105;-80
2023/09/26 07:45:57;;;;;;;13.00;5.10;;;;;;;25.37;33.07;101484.39;103885;1292;64782;-81
2023/09/26 07:48:24;;;;;;;16.30;4.50;;;;;;;25.38;33.06;101481.71;103533;1291;65500;-81
2023/09/26 07:50:50;;;;;;;11.70;4.40;;;;;;;25.37;32.91;101476.20;103704;1298;62092;-81
2023/09/26 07:53:15;;;;;;;17.70;5.00;;;;;;;25.39;33.00;101478.77;104366;1297;62198;-81
2023/09/26 07:55:41;;;;;;;27.00;5.10;;;;;;;25.42;33.14;101479.83;103997;1293;62065;-82
2023/09/26 07:58:07;;;;;;;15.90;5.10;;;;;;;25.44;33.23;101478.38;104226;1294;62253;-82
2023/09/26 08:00:34;;;;;;;24.40;5.30;;;;;;;25.45;33.04;101473.98;104314;1296;62197;-81
2023/09/26 08:03:01;;;;;;;21.60;5.00;;;;;;;25.48;33.10;101467.83;104143;1297;61302;-81
2023/09/26 08:05:27;;;;;;;17.30;5.10;;;;;;;25.52;33.05;101470.59;104018;1294;62200;-81
2023/09/26 08:07:53;;;;;;;15.10;4.60;;;;;;;25.54;32.92;101469.51;103763;1297;62219;-82
2023/09/26 08:10:19;;;;;;;24.70;5.20;;;;;;;25.56;33.01;101467.35;103851;1294;62209;-81
2023/09/26 08:12:45;;;;;;;19.80;5.60;;;;;;;25.57;32.99;101468.84;103883;1294;62165;-79
2023/09/26 08:15:14;;;;;;;15.30;4.60;;;;;;;25.59;32.76;101467.84;103937;1294;60537;-81
2023/09/26 08:17:39;;;;;;;18.10;5.10;;;;;;;25.60;32.66;101466.30;103807;1294;64027;-80
2023/09/26 08:20:06;;;;;;;14.20;5.00;;;;;;;25.61;32.87;101463.88;103889;1293;62283;-81
2023/09/26 08:22:31;;;;;;;11.20;4.70;;;;;;;25.62;32.71;101460.71;103679;1294;62198;-79
2023/09/26 08:24:57;;;;;;;13.60;4.80;;;;;;;25.65;32.52;101459.48;103809;1294;62137;-79
2023/09/26 08:27:24;;;;;;;17.50;5.00;;;;;;;25.66;32.68;101455.39;103656;1294;62211;-80
2023/09/26 08:29:50;;;;;;;15.80;5.00;;;;;;;25.69;32.85;101455.52;103846;1292;63847;-79
2023/09/26 08:32:16;;;;;;;12.10;4.80;;;;;;;25.71;32.69;101454.60;103687;1291;62196;-80
2023/09/26 08:34:41;;;;;;;22.10;5.20;;;;;;;25.72;32.63;101453.45;104192;1294;62142;-80
2023/09/26 08:37:07;;;;;;;14.10;4.70;;;;;;;25.73;32.61;101452.63;104487;1293;62207;-81
2023/09/26 08:39:32;;;;;;;21.70;4.70;;;;;;;25.74;32.42;101450.00;104217;1294;62114;-81
2023/09/26 08:41:59;;;;;;;13.10;5.20;;;;;;;25.75;32.31;101449.58;104769;1294;62203;-80
2023/09/26 08:44:24;;;;;;;16.80;4.90;;;;;;;25.76;32.18;101450.20;104310;1292;62095;-81
2023/09/26 08:46:50;;;;;;;13.60;4.90;;;;;;;25.77;31.98;101441.15;104622;1292;62138;-82
2023/09/26 08:49:16;;;;;;;19.80;5.30;;;;;;;25.77;31.80;101440.27;104342;1293;62154;-82
2023/09/26 08:51:41;;;;;;;19.10;5.30;;;;;;;25.77;31.67;101446.34;104337;1294;62115;-82
2023/09/26 08:54:07;;;;;;;11.90;4.40;;;;;;;25.76;31.55;101438.52;104772;1295;62229;-81
2023/09/26 08:56:33;;;;;;;24.90;5.20;;;;;;;25.77;31.46;101440.42;104771;1293;64552;-81
2023/09/26 08:58:59;;;;;;;23.30;5.40;;;;;;;25.81;31.89;101443.49;104733;1294;62186;-82
2023/09/26 09:01:25;;;;;;;20.20;4.70;;;;;;;25.85;31.59;101440.51;104908;1295;60191;-81
2023/09/26 09:03:50;;;;;;;18.30;4.50;;;;;;;25.85;31.68;101441.17;104632;1295;62188;-82
2023/09/26 09:06:16;;;;;;;19.80;4.50;;;;;;;25.86;31.33;101436.27;104449;1292;62202;-82
2023/09/26 09:08:43;;;;;;;20.20;4.70;;;;;;;25.86;31.19;101430.30;104750;1293;62136;-82
2023/09/26 09:11:08;;;;;;;23.90;4.80;;;;;;;25.87;31.07;101436.02;104878;1296;60688;-81
2023/09/26 09:13:37;;;;;;;17.70;4.50;;;;;;;25.88;30.95;101438.26;104881;1293;62205;-82
2023/09/26 09:16:16;;;;;;;;;;;;;;;25.88;30.82;101434.81;105584;1292;66572;-82
2023/09/26 09:18:42;;;;;;;24.20;4.80;;;;;;;25.88;30.91;101433.18;104809;1292;62208;-81
2023/09/26 09:21:25;;;;;;;18.00;5.00;;;;;;;25.90;30.82;101432.49;104617;1292;62220;-80
2023/09/26 09:23:52;;;;;;;21.00;4.80;;;;;;;25.91;30.75;101437.07;104321;1291;64001;-80
2023/09/26 09:26:19;;;;;;;14.10;4.50;;;;;;;25.93;30.58;101432.93;104418;1294;66446;-80
2023/09/26 09:28:46;;;;;;;14.60;3.90;;;;;;;25.94;30.67;101437.55;104571;1293;62060;-80
2023/09/26 09:31:14;;;;;;;19.50;4.50;;;;;;;25.96;30.47;101431.29;104240;1293;62154;-82
2023/09/26 09:33:43;;;;;;;16.80;4.10;;;;;;;25.98;30.05;101432.59;104642;1295;64339;-81
2023/09/26 09:36:09;;;;;;;14.70;4.20;;;;;;;25.99;29.79;101427.84;104344;1294;66666;-82
2023/09/26 09:38:34;;;;;;;16.40;4.00;;;;;;;26.00;29.58;101431.71;104489;1294;62286;-81
2023/09/26 09:41:03;;;;;;;17.00;3.70;;;;;;;26.00;29.29;101430.39;104441;1292;62218;-79
2023/09/26 09:43:29;;;;;;;14.20;3.50;;;;;;;26.01;29.13;101428.91;104112;1291;63895;-80
2023/09/26 09:45:55;;;;;;;18.20;4.50;;;;;;;26.02;29.09;101430.61;104215;1294;62175;-80
2023/09/26 09:48:22;;;;;;;18.70;3.90;;;;;;;26.02;28.87;101433.71;104616;1297;59919;-81
2023/09/26 09:50:48;;;;;;;12.90;3.90;;;;;;;26.02;28.74;101432.02;104567;1294;62742;-82
2023/09/26 09:53:14;;;;;;;16.20;3.90;;;;;;;26.03;28.61;101431.45;104454;1295;62075;-82
2023/09/26 09:55:40;;;;;;;21.10;4.00;;;;;;;26.04;28.74;101429.39;104078;1294;62175;-83
2023/09/26 09:58:10;;;;;;;13.70;3.80;;;;;;;26.04;28.54;101435.89;104137;1294;63451;-82
2023/09/26 10:00:40;;;;;;;13.60;3.90;;;;;;;26.05;28.25;101431.65;104286;1294;63286;-81
2023/09/26 10:03:14;;;;;;;20.30;3.90;;;;;;;26.06;28.28;101434.79;104673;1294;64670;-81
2023/09/26 10:05:39;;;;;;;16.20;4.10;;;;;;;26.08;28.42;101433.95;104310;1294;62062;-82
2023/09/26 10:08:06;;;;;;;14.80;4.00;;;;;;;26.09;28.36;101434.55;104045;1294;60164;-81
2023/09/26 10:10:32;;;;;;;24.60;4.00;;;;;;;26.11;28.12;101429.77;104407;1294;62189;-82
2023/09/26 10:12:57;;;;;;;26.80;4.50;;;;;;;26.13;28.29;101427.65;104524;1299;62053;-81
2023/09/26 10:15:23;;;;;;;15.60;3.90;;;;;;;26.15;28.36;101444.59;104418;1295;62116;-83
2023/09/26 10:17:48;;;;;;;14.60;3.90;;;;;;;26.14;27.96;101436.34;104177;1294;62295;-82
2023/09/26 10:20:14;;;;;;;20.50;4.70;;;;;;;26.14;28.19;101439.22;104138;1294;61939;-83
2023/09/26 10:22:41;;;;;;;22.50;4.10;;;;;;;26.15;28.00;101432.10;104154;1294;63027;-81
2023/09/26 10:25:08;;;;;;;19.40;4.10;;;;;;;26.16;28.20;101428.38;103955;1297;62017;-82
2023/09/26 10:27:40;;;;;;;13.10;3.80;;;;;;;26.18;28.13;101424.48;105303;1294;66538;-82
2023/09/26 10:30:10;;;;;;;20.00;4.30;;;;;;;26.19;28.08;101418.98;104185;1292;62131;-81
2023/09/26 10:32:39;;;;;;;19.40;4.10;;;;;;;26.19;28.17;101418.20;103945;1291;60663;-82
2023/09/26 10:35:31;;;;;;;15.80;4.20;;;;;;;26.21;28.17;101413.23;104141;1295;63826;-82
2023/09/26 10:38:23;;;;;;;18.70;4.80;;;;;;;26.20;28.15;101412.73;105787;1293;66844;-82
2023/09/26 10:40:48;;;;;;;11.70;4.10;;;;;;;26.20;27.92;101405.34;106035;1292;60252;-82
2023/09/26 10:43:15;;;;;;;26.60;4.20;;;;;;;26.21;27.86;101402.02;104903;1294;60548;-83
2023/09/26 10:45:47;;;;;;;21.30;4.30;;;;;;;26.22;28.03;101400.30;104392;1294;62083;-82
2023/09/26 10:48:20;;;;;;;15.40;4.00;;;;;;;26.24;28.46;101394.77;104010;1296;76280;-82
2023/09/26 10:50:46;;;;;;;16.70;3.50;;;;;;;26.25;28.44;101406.90;103885;1294;62053;-81
2023/09/26 10:53:11;;;;;;;19.10;4.80;;;;;;;26.28;28.35;101404.36;103780;1295;62310;-82
2023/09/26 10:55:37;;;;;;;19.40;4.00;;;;;;;26.29;28.36;101400.13;103874;1293;62800;-81
2023/09/26 10:58:03;;;;;;;14.80;3.70;;;;;;;26.29;28.14;101403.92;104284;1291;62429;-82
2023/09/26 11:00:29;;;;;;;19.10;4.10;;;;;;;26.31;27.90;101402.98;104782;1297;62069;-81
2023/09/26 11:02:54;;;;;;;15.40;4.00;;;;;;;26.32;27.86;101402.60;105039;1294;61399;-82
2023/09/26 11:05:20;;;;;;;20.50;4.40;;;;;;;26.33;28.00;101398.00;105222;1292;61107;-84
2023/09/26 11:07:47;;;;;;;21.80;4.10;;;;;;;26.35;27.70;101395.66;104815;1297;60449;-84
2023/09/26 11:10:16;;;;;;;16.80;3.70;;;;;;;26.37;27.67;101398.17;105639;1292;60219;-81